Time;durP1;ratioP1;P1;durP2;ratioP2;P2;SDS_P1;SDS_P2;PMS_P1;PMS_P2;Temp;Humidity;BMP_temperature;BMP_pressure;BME280_temperature;BME280_humidity;BME280_pressure;Samples;Min_cycle;Max_cycle;Signal;HPM_P1;HPM_P2
2022/03/07 00:02:22;;;;;;;6.30;4.68;;;;;;;;;;5037711;28;20029;-68
2022/03/07 00:04:48;;;;;;;5.90;4.07;;;;;;;;;;5034904;28;20039;-67
2022/03/07 00:07:13;;;;;;;6.35;4.45;;;;;;;;;;5030345;28;20444;-68
2022/03/07 00:09:38;;;;;;;6.30;4.43;;;;;;;;;;5040123;28;20044;-68
2022/03/07 00:12:04;;;;;;;7.60;4.57;;;;;;;;;;5031705;28;20048;-70
2022/03/07 00:14:30;;;;;;;5.45;4.50;;;;;;;;;;5030354;28;20025;-67
2022/03/07 00:16:55;;;;;;;7.05;4.82;;;;;;;;;;5042311;28;20033;-69
2022/03/07 00:19:20;;;;;;;6.53;4.70;;;;;;;;;;5039490;28;20090;-67
2022/03/07 00:21:46;;;;;;;5.45;4.05;;;;;;;;;;5038887;28;20446;-68
2022/03/07 00:24:11;;;;;;;11.35;6.03;;;;;;;;;;5034496;28;20071;-68
2022/03/07 00:26:36;;;;;;;8.95;5.10;;;;;;;;;;5034563;28;20440;-69
2022/03/07 00:29:02;;;;;;;6.07;4.22;;;;;;;;;;5029476;28;20031;-68
2022/03/07 00:31:27;;;;;;;8.88;5.25;;;;;;;;;;5031038;28;20368;-68
2022/03/07 00:33:53;;;;;;;5.97;4.53;;;;;;;;;;5032312;28;20036;-67
2022/03/07 00:36:19;;;;;;;5.65;4.65;;;;;;;;;;5041083;28;20340;-71
2022/03/07 00:38:44;;;;;;;6.18;4.95;;;;;;;;;;5039307;28;20078;-69
2022/03/07 00:41:10;;;;;;;11.27;6.50;;;;;;;;;;5031033;28;20382;-68
2022/03/07 00:43:35;;;;;;;8.57;5.55;;;;;;;;;;5039082;28;20040;-68
2022/03/07 00:46:01;;;;;;;9.10;6.70;;;;;;;;;;5034463;28;20074;-68
2022/03/07 00:48:26;;;;;;;7.75;5.75;;;;;;;;;;5037635;28;20031;-69
2022/03/07 00:50:52;;;;;;;5.85;4.47;;;;;;;;;;5038100;28;20070;-69
2022/03/07 00:53:20;;;;;;;8.10;4.82;;;;;;;;;;5031995;28;20029;-67
2022/03/07 00:55:46;;;;;;;10.10;5.82;;;;;;;;;;5040053;28;20025;-68
2022/03/07 00:58:11;;;;;;;9.75;6.93;;;;;;;;;;5030885;28;20360;-70
2022/03/07 01:00:37;;;;;;;10.45;6.38;;;;;;;;;;5038574;28;20108;-68
2022/03/07 01:03:03;;;;;;;9.85;5.95;;;;;;;;;;5033158;28;20031;-69
2022/03/07 01:05:29;;;;;;;13.00;7.28;;;;;;;;;;5038040;28;20029;-68
2022/03/07 01:07:54;;;;;;;12.07;7.22;;;;;;;;;;5039381;28;20425;-70
2022/03/07 01:10:19;;;;;;;8.52;6.28;;;;;;;;;;5038363;28;20029;-66
2022/03/07 01:12:45;;;;;;;7.35;5.22;;;;;;;;;;5024860;28;20060;-68
2022/03/07 01:15:10;;;;;;;7.90;6.15;;;;;;;;;;5035242;28;20031;-68
2022/03/07 01:17:36;;;;;;;8.82;6.70;;;;;;;;;;5037819;28;20044;-68
2022/03/07 01:20:03;;;;;;;8.10;6.63;;;;;;;;;;5034483;28;20033;-68
2022/03/07 01:22:28;;;;;;;9.80;7.05;;;;;;;;;;5026816;28;20494;-70
2022/03/07 01:24:53;;;;;;;9.82;7.40;;;;;;;;;;5030249;28;20021;-69
2022/03/07 01:27:19;;;;;;;8.68;7.07;;;;;;;;;;5027448;28;20033;-69
2022/03/07 01:29:44;;;;;;;12.40;8.60;;;;;;;;;;5034046;28;20040;-68
2022/03/07 01:32:10;;;;;;;9.98;6.85;;;;;;;;;;5032397;28;20020;-69
2022/03/07 01:34:35;;;;;;;14.57;9.65;;;;;;;;;;5036301;28;20427;-68
2022/03/07 01:37:00;;;;;;;12.98;9.40;;;;;;;;;;5030334;28;20421;-68
2022/03/07 01:39:26;;;;;;;31.58;17.75;;;;;;;;;;5039262;28;20029;-67
2022/03/07 01:41:51;;;;;;;19.38;11.60;;;;;;;;;;5037406;28;20371;-69
2022/03/07 01:44:18;;;;;;;17.65;11.68;;;;;;;;;;5030852;28;20036;-67
2022/03/07 01:46:43;;;;;;;16.88;11.73;;;;;;;;;;5039436;28;20025;-68
2022/03/07 01:49:08;;;;;;;14.00;9.68;;;;;;;;;;5038947;28;20017;-67
2022/03/07 01:51:36;;;;;;;15.32;10.13;;;;;;;;;;5038995;28;20029;-69
2022/03/07 01:54:02;;;;;;;14.45;10.57;;;;;;;;;;5038622;28;20439;-67
2022/03/07 01:56:27;;;;;;;20.23;11.85;;;;;;;;;;5037568;28;20480;-68
2022/03/07 01:58:52;;;;;;;14.13;9.95;;;;;;;;;;5029848;28;20033;-67
2022/03/07 02:01:18;;;;;;;19.65;11.77;;;;;;;;;;5038527;28;20333;-66
2022/03/07 02:03:43;;;;;;;27.90;14.55;;;;;;;;;;5022130;28;20818;-66
2022/03/07 02:06:08;;;;;;;32.45;16.83;;;;;;;;;;5039358;28;20076;-68
2022/03/07 02:08:34;;;;;;;15.20;10.25;;;;;;;;;;5038481;28;20040;-66
2022/03/07 02:11:00;;;;;;;15.02;9.77;;;;;;;;;;5040525;28;20021;-66
2022/03/07 02:13:25;;;;;;;16.30;11.73;;;;;;;;;;5028885;28;20036;-69
2022/03/07 02:15:54;;;;;;;16.27;10.57;;;;;;;;;;5037121;28;20455;-66
2022/03/07 02:18:21;;;;;;;17.75;11.82;;;;;;;;;;5038074;28;20420;-65
2022/03/07 02:20:59;;;;;;;16.38;11.65;;;;;;;;;;5037535;28;20108;-67
2022/03/07 02:23:24;;;;;;;12.10;9.20;;;;;;;;;;5027594;28;20021;-66
2022/03/07 02:25:50;;;;;;;12.57;9.13;;;;;;;;;;5031735;28;20337;-67
2022/03/07 02:28:15;;;;;;;23.95;13.00;;;;;;;;;;5038090;28;20033;-65
2022/03/07 02:30:41;;;;;;;17.80;11.48;;;;;;;;;;5037659;28;20107;-67
2022/03/07 02:33:10;;;;;;;14.27;10.15;;;;;;;;;;5037936;28;20432;-67
2022/03/07 02:35:35;;;;;;;12.10;8.75;;;;;;;;;;5038351;28;20383;-68
2022/03/07 02:38:00;;;;;;;11.77;9.45;;;;;;;;;;5040434;28;21018;-67
2022/03/07 02:40:26;;;;;;;11.98;9.32;;;;;;;;;;5039415;28;20024;-66
2022/03/07 02:42:51;;;;;;;11.63;9.18;;;;;;;;;;5036497;28;20017;-68
2022/03/07 02:45:16;;;;;;;14.50;9.80;;;;;;;;;;5032159;28;20060;-67
2022/03/07 02:47:42;;;;;;;14.02;9.07;;;;;;;;;;5026874;28;20033;-67
2022/03/07 02:50:07;;;;;;;12.25;9.25;;;;;;;;;;5027079;28;20444;-68
2022/03/07 02:52:33;;;;;;;14.27;9.82;;;;;;;;;;5027372;28;20044;-68
2022/03/07 02:54:58;;;;;;;12.30;9.32;;;;;;;;;;5027094;28;20310;-70
2022/03/07 02:57:23;;;;;;;14.55;10.73;;;;;;;;;;5026190;28;20041;-67
2022/03/07 02:59:49;;;;;;;15.10;9.80;;;;;;;;;;5037425;28;20410;-68
2022/03/07 03:02:14;;;;;;;12.85;9.13;;;;;;;;;;5027076;28;20032;-66
2022/03/07 03:04:40;;;;;;;14.95;9.60;;;;;;;;;;5031600;28;20059;-67
2022/03/07 03:07:05;;;;;;;11.60;8.80;;;;;;;;;;5039652;28;20029;-66
2022/03/07 03:09:31;;;;;;;12.95;9.10;;;;;;;;;;5038060;28;20029;-68
2022/03/07 03:11:56;;;;;;;15.13;9.23;;;;;;;;;;5039654;28;20039;-67
2022/03/07 03:14:22;;;;;;;12.30;9.07;;;;;;;;;;5040066;28;20051;-67
2022/03/07 03:16:47;;;;;;;15.07;9.07;;;;;;;;;;5020142;28;20693;-68
2022/03/07 03:19:12;;;;;;;11.85;9.05;;;;;;;;;;5030101;28;20444;-67
2022/03/07 03:21:38;;;;;;;11.30;8.55;;;;;;;;;;5035295;28;20039;-69
2022/03/07 03:24:03;;;;;;;11.50;8.50;;;;;;;;;;5039187;28;20083;-68
2022/03/07 03:26:29;;;;;;;15.30;10.10;;;;;;;;;;5035169;28;20108;-69
2022/03/07 03:28:54;;;;;;;10.52;8.32;;;;;;;;;;5039468;28;20029;-67
2022/03/07 03:31:19;;;;;;;12.15;8.63;;;;;;;;;;5036381;28;20060;-67
2022/03/07 03:33:45;;;;;;;10.70;8.52;;;;;;;;;;5029381;28;20036;-67
2022/03/07 03:36:10;;;;;;;10.02;8.35;;;;;;;;;;5037277;28;20052;-67
2022/03/07 03:38:36;;;;;;;10.55;8.52;;;;;;;;;;5037063;28;20025;-68
2022/03/07 03:41:01;;;;;;;13.82;9.65;;;;;;;;;;5037461;28;20032;-68
2022/03/07 03:43:26;;;;;;;13.52;9.65;;;;;;;;;;5033628;28;20025;-67
2022/03/07 03:45:52;;;;;;;14.88;10.18;;;;;;;;;;5033118;28;20025;-70
2022/03/07 03:48:17;;;;;;;11.70;8.45;;;;;;;;;;5036816;28;20136;-67
2022/03/07 03:50:42;;;;;;;17.38;10.40;;;;;;;;;;5021593;28;20325;-66
2022/03/07 03:53:08;;;;;;;11.73;8.40;;;;;;;;;;5038009;28;20016;-68
2022/03/07 03:55:33;;;;;;;10.75;8.13;;;;;;;;;;5040530;28;20017;-66
2022/03/07 03:57:59;;;;;;;9.73;7.57;;;;;;;;;;5039574;28;20158;-67
2022/03/07 04:00:24;;;;;;;10.70;8.65;;;;;;;;;;5041812;28;20025;-67
2022/03/07 04:02:50;;;;;;;9.70;7.72;;;;;;;;;;5038999;28;20025;-67
2022/03/07 04:05:16;;;;;;;11.02;8.52;;;;;;;;;;5041465;28;20033;-68
2022/03/07 04:07:42;;;;;;;10.20;7.90;;;;;;;;;;5032032;28;20037;-67
2022/03/07 04:10:07;;;;;;;10.63;7.65;;;;;;;;;;5040009;28;20025;-67
2022/03/07 04:12:33;;;;;;;11.05;7.93;;;;;;;;;;5042441;28;20045;-67
2022/03/07 04:14:58;;;;;;;11.02;8.57;;;;;;;;;;5038774;28;20025;-67
2022/03/07 04:17:24;;;;;;;10.35;7.82;;;;;;;;;;5040610;28;20021;-67
2022/03/07 04:19:49;;;;;;;13.10;8.93;;;;;;;;;;5040446;28;20040;-68
2022/03/07 04:22:15;;;;;;;10.55;8.13;;;;;;;;;;5034852;28;20040;-67
2022/03/07 04:24:41;;;;;;;10.35;7.65;;;;;;;;;;5035803;28;21360;-67
2022/03/07 04:27:06;;;;;;;11.80;8.63;;;;;;;;;;5038014;28;20041;-68
2022/03/07 04:29:31;;;;;;;11.10;8.15;;;;;;;;;;5039323;28;20029;-66
2022/03/07 04:31:57;;;;;;;10.00;7.15;;;;;;;;;;5040952;28;20032;-66
2022/03/07 04:34:22;;;;;;;10.20;8.10;;;;;;;;;;5031993;28;20033;-68
2022/03/07 04:36:47;;;;;;;11.55;8.75;;;;;;;;;;5040031;28;20120;-67
2022/03/07 04:39:13;;;;;;;11.63;8.50;;;;;;;;;;5039737;28;20428;-67
2022/03/07 04:41:39;;;;;;;13.43;8.73;;;;;;;;;;5031811;28;20083;-68
2022/03/07 04:44:05;;;;;;;10.60;8.35;;;;;;;;;;5039582;28;20063;-70
2022/03/07 04:46:30;;;;;;;9.90;7.28;;;;;;;;;;5035814;28;20048;-68
2022/03/07 04:48:56;;;;;;;10.38;7.88;;;;;;;;;;5027866;28;20083;-66
2022/03/07 04:51:21;;;;;;;11.23;8.60;;;;;;;;;;5028639;28;20539;-67
2022/03/07 04:53:47;;;;;;;33.55;22.08;;;;;;;;;;5026073;28;20044;-69
2022/03/07 04:56:12;;;;;;;15.98;9.77;;;;;;;;;;5027809;28;20033;-67
2022/03/07 04:58:38;;;;;;;12.65;9.55;;;;;;;;;;5031457;28;20036;-68
2022/03/07 05:01:04;;;;;;;11.63;9.52;;;;;;;;;;5028685;28;20071;-68
2022/03/07 05:03:29;;;;;;;14.43;11.65;;;;;;;;;;5040318;28;20395;-68
2022/03/07 05:05:54;;;;;;;14.13;10.70;;;;;;;;;;5040579;28;20061;-66
2022/03/07 05:08:20;;;;;;;11.73;8.95;;;;;;;;;;5038246;28;20153;-68
2022/03/07 05:10:45;;;;;;;19.88;13.43;;;;;;;;;;5034947;28;20108;-69
2022/03/07 05:13:11;;;;;;;117.65;31.63;;;;;;;;;;5032465;28;20103;-69
2022/03/07 05:15:36;;;;;;;47.80;22.30;;;;;;;;;;5031819;28;20025;-68
2022/03/07 05:18:02;;;;;;;211.02;98.63;;;;;;;;;;5026588;28;20029;-67
2022/03/07 05:20:28;;;;;;;70.80;33.20;;;;;;;;;;5038254;28;20106;-66
2022/03/07 05:22:53;;;;;;;41.70;23.27;;;;;;;;;;5027766;28;20919;-70
2022/03/07 05:25:20;;;;;;;28.25;15.90;;;;;;;;;;5028127;28;20052;-68
2022/03/07 05:27:46;;;;;;;22.48;13.80;;;;;;;;;;5034439;28;20111;-70
2022/03/07 05:30:15;;;;;;;249.38;101.10;;;;;;;;;;5029783;28;20116;-70
2022/03/07 05:32:42;;;;;;;34.50;18.02;;;;;;;;;;5040225;28;20057;-66
2022/03/07 05:35:07;;;;;;;45.90;26.75;;;;;;;;;;5036200;28;20440;-70
2022/03/07 05:37:33;;;;;;;47.22;32.80;;;;;;;;;;5038825;28;20048;-71
2022/03/07 05:39:58;;;;;;;95.53;67.78;;;;;;;;;;5037104;28;20642;-70
2022/03/07 05:42:23;;;;;;;27.05;19.10;;;;;;;;;;5030967;28;20048;-70
2022/03/07 05:44:49;;;;;;;19.52;14.98;;;;;;;;;;5027170;28;20044;-68
2022/03/07 05:47:14;;;;;;;20.25;15.07;;;;;;;;;;5024672;28;20643;-69
2022/03/07 05:49:39;;;;;;;14.52;11.93;;;;;;;;;;5032346;28;20167;-66
2022/03/07 05:52:05;;;;;;;16.88;12.43;;;;;;;;;;5039103;28;20033;-68
2022/03/07 05:54:31;;;;;;;29.00;18.55;;;;;;;;;;5035918;28;20029;-71
2022/03/07 05:56:56;;;;;;;16.88;13.05;;;;;;;;;;5036294;28;20024;-67
2022/03/07 05:59:21;;;;;;;26.58;16.25;;;;;;;;;;5028151;28;20029;-68
2022/03/07 06:01:47;;;;;;;24.25;17.08;;;;;;;;;;5039092;28;20025;-69
2022/03/07 06:04:12;;;;;;;39.88;24.35;;;;;;;;;;5039666;28;20166;-68
2022/03/07 06:06:38;;;;;;;38.88;23.95;;;;;;;;;;5037948;28;20479;-71
2022/03/07 06:09:03;;;;;;;44.28;23.63;;;;;;;;;;5035337;28;20188;-70
2022/03/07 06:11:28;;;;;;;116.63;57.58;;;;;;;;;;5033789;28;20033;-65
2022/03/07 06:13:54;;;;;;;135.60;65.35;;;;;;;;;;5031185;28;20345;-64
2022/03/07 06:16:19;;;;;;;28.27;18.17;;;;;;;;;;5038194;28;20035;-71
2022/03/07 06:18:44;;;;;;;27.75;17.80;;;;;;;;;;5031763;28;20044;-72
2022/03/07 06:21:10;;;;;;;18.48;14.55;;;;;;;;;;5031142;28;20151;-69
2022/03/07 06:23:36;;;;;;;35.17;21.42;;;;;;;;;;5031926;28;20013;-68
2022/03/07 06:26:04;;;;;;;29.70;17.00;;;;;;;;;;5024526;28;20044;-70
2022/03/07 06:28:29;;;;;;;79.53;44.65;;;;;;;;;;5025546;28;20456;-67
2022/03/07 06:30:55;;;;;;;26.92;17.30;;;;;;;;;;5029992;28;20028;-64
2022/03/07 06:33:20;;;;;;;33.17;20.30;;;;;;;;;;5033182;28;20029;-70
2022/03/07 06:35:45;;;;;;;38.00;21.15;;;;;;;;;;5038975;28;20451;-69
2022/03/07 06:38:12;;;;;;;22.90;13.73;;;;;;;;;;5034934;28;20048;-71
2022/03/07 06:40:37;;;;;;;15.82;10.77;;;;;;;;;;5038667;28;20031;-70
2022/03/07 06:43:02;;;;;;;20.00;13.05;;;;;;;;;;5038907;28;20044;-69
2022/03/07 06:45:28;;;;;;;46.40;25.48;;;;;;;;;;5036041;28;20086;-71
2022/03/07 06:47:54;;;;;;;58.70;30.25;;;;;;;;;;5036467;28;20021;-70
2022/03/07 06:50:19;;;;;;;117.25;51.67;;;;;;;;;;5037409;28;20025;-70
2022/03/07 06:52:45;;;;;;;124.90;56.33;;;;;;;;;;5028278;28;20053;-71
2022/03/07 06:55:10;;;;;;;66.43;33.47;;;;;;;;;;5037819;28;20058;-70
2022/03/07 06:57:35;;;;;;;38.38;20.58;;;;;;;;;;5039290;28;20036;-67
2022/03/07 07:00:02;;;;;;;22.15;15.48;;;;;;;;;;5037045;28;20028;-69
2022/03/07 07:02:28;;;;;;;17.65;11.93;;;;;;;;;;5038915;28;20028;-68
2022/03/07 07:04:54;;;;;;;29.15;19.92;;;;;;;;;;5036253;28;20029;-70
2022/03/07 07:07:19;;;;;;;28.33;18.17;;;;;;;;;;5021689;28;20033;-67
2022/03/07 07:09:46;;;;;;;25.15;16.95;;;;;;;;;;5038449;28;20017;-67
2022/03/07 07:12:11;;;;;;;23.60;15.48;;;;;;;;;;5037013;28;20037;-68
2022/03/07 07:14:37;;;;;;;23.85;15.80;;;;;;;;;;5036771;28;20031;-72
2022/03/07 07:17:02;;;;;;;20.17;14.45;;;;;;;;;;5039112;28;20351;-68
2022/03/07 07:19:28;;;;;;;25.13;16.90;;;;;;;;;;5042066;28;20041;-68
2022/03/07 07:21:53;;;;;;;16.08;12.85;;;;;;;;;;5041283;28;20112;-67
2022/03/07 07:24:19;;;;;;;19.65;12.88;;;;;;;;;;5039118;28;20033;-70
2022/03/07 07:26:44;;;;;;;13.48;9.38;;;;;;;;;;5042118;28;20044;-69
2022/03/07 07:29:09;;;;;;;30.50;22.30;;;;;;;;;;5042783;28;20044;-68
2022/03/07 07:31:35;;;;;;;14.02;10.75;;;;;;;;;;5041701;28;20362;-69
2022/03/07 07:34:00;;;;;;;20.05;14.43;;;;;;;;;;5041976;28;20021;-70
2022/03/07 07:36:25;;;;;;;14.05;10.20;;;;;;;;;;5044393;28;20025;-70
2022/03/07 07:38:51;;;;;;;14.43;9.75;;;;;;;;;;5041912;28;20041;-71
2022/03/07 07:41:16;;;;;;;12.27;9.35;;;;;;;;;;5043826;28;20107;-70
2022/03/07 07:43:41;;;;;;;13.05;10.00;;;;;;;;;;5043378;28;20036;-70
2022/03/07 07:46:07;;;;;;;10.27;7.80;;;;;;;;;;5042915;28;20029;-69
2022/03/07 07:48:32;;;;;;;11.82;8.43;;;;;;;;;;5043736;28;20035;-69
2022/03/07 07:50:57;;;;;;;10.85;8.07;;;;;;;;;;5043955;28;20029;-69
2022/03/07 07:53:23;;;;;;;12.13;9.50;;;;;;;;;;5043980;28;20061;-70
2022/03/07 07:55:48;;;;;;;10.07;8.18;;;;;;;;;;5040443;28;20032;-70
2022/03/07 07:58:13;;;;;;;13.15;10.32;;;;;;;;;;5041265;28;20032;-69
2022/03/07 08:00:39;;;;;;;13.75;11.38;;;;;;;;;;5040634;28;20432;-70
2022/03/07 08:03:04;;;;;;;12.60;10.35;;;;;;;;;;5022090;28;20037;-70
2022/03/07 08:05:30;;;;;;;12.07;9.98;;;;;;;;;;5042269;28;20040;-71
2022/03/07 08:07:55;;;;;;;31.35;18.52;;;;;;;;;;5041868;28;20071;-70
2022/03/07 08:10:20;;;;;;;26.52;16.38;;;;;;;;;;5041223;28;20033;-68
2022/03/07 08:12:46;;;;;;;38.97;23.98;;;;;;;;;;5041616;28;20045;-69
2022/03/07 08:15:12;;;;;;;30.40;18.13;;;;;;;;;;5042057;28;20063;-69
2022/03/07 08:17:50;;;;;;;21.40;15.00;;;;;;;;;;5041463;28;20444;-70
2022/03/07 08:20:16;;;;;;;20.88;14.23;;;;;;;;;;5041206;28;20040;-71
2022/03/07 08:22:42;;;;;;;35.17;24.00;;;;;;;;;;5040456;28;20028;-68
2022/03/07 08:25:08;;;;;;;39.42;25.20;;;;;;;;;;5042131;28;20204;-70
2022/03/07 08:27:34;;;;;;;22.70;16.77;;;;;;;;;;5042272;28;20048;-69
2022/03/07 08:30:00;;;;;;;23.60;17.02;;;;;;;;;;5040994;28;20119;-68
2022/03/07 08:32:25;;;;;;;18.42;14.18;;;;;;;;;;5041349;28;20104;-68
2022/03/07 08:34:51;;;;;;;117.28;47.58;;;;;;;;;;5041136;28;20048;-71
2022/03/07 08:37:16;;;;;;;205.15;96.20;;;;;;;;;;5038694;28;20036;-69
2022/03/07 08:39:41;;;;;;;67.68;37.90;;;;;;;;;;5041193;28;20508;-68
2022/03/07 08:42:06;;;;;;;23.00;16.35;;;;;;;;;;5040815;28;20403;-71
2022/03/07 08:44:33;;;;;;;92.20;41.05;;;;;;;;;;5041257;28;20086;-68
2022/03/07 08:46:59;;;;;;;346.52;124.47;;;;;;;;;;5040022;28;20115;-69
2022/03/07 08:49:24;;;;;;;239.40;90.22;;;;;;;;;;5040054;28;20103;-70
2022/03/07 08:51:49;;;;;;;119.03;52.22;;;;;;;;;;5040789;28;20090;-69
2022/03/07 08:54:15;;;;;;;40.45;23.52;;;;;;;;;;5040429;28;20040;-70
2022/03/07 08:56:40;;;;;;;26.35;17.50;;;;;;;;;;5041130;28;20044;-69
2022/03/07 08:59:06;;;;;;;26.35;18.35;;;;;;;;;;5038976;28;20021;-74
2022/03/07 09:01:31;;;;;;;14.13;10.98;;;;;;;;;;5042071;28;20028;-69
2022/03/07 09:03:57;;;;;;;18.80;14.15;;;;;;;;;;5040501;28;20382;-71
2022/03/07 09:06:22;;;;;;;20.17;14.43;;;;;;;;;;5040335;28;20102;-71
2022/03/07 09:08:47;;;;;;;106.63;56.78;;;;;;;;;;5040079;28;20041;-70
2022/03/07 09:11:13;;;;;;;45.58;26.13;;;;;;;;;;5041094;28;20407;-69
2022/03/07 09:13:38;;;;;;;53.47;30.92;;;;;;;;;;5039266;28;20137;-70
2022/03/07 09:16:04;;;;;;;34.72;20.98;;;;;;;;;;5041264;28;20032;-71
2022/03/07 09:18:29;;;;;;;73.00;44.78;;;;;;;;;;5041457;28;20104;-70
2022/03/07 09:20:56;;;;;;;52.70;34.40;;;;;;;;;;5041321;28;20156;-70
2022/03/07 09:23:22;;;;;;;71.75;37.78;;;;;;;;;;5039381;28;20033;-71
2022/03/07 09:25:47;;;;;;;46.15;28.30;;;;;;;;;;5037513;28;20024;-71
2022/03/07 09:28:12;;;;;;;31.95;20.13;;;;;;;;;;5041377;28;20445;-70
2022/03/07 09:30:38;;;;;;;25.40;17.55;;;;;;;;;;5038206;28;20021;-72
2022/03/07 09:33:03;;;;;;;31.35;23.80;;;;;;;;;;5041639;28;20097;-70
2022/03/07 09:35:32;;;;;;;42.97;28.20;;;;;;;;;;5039978;28;20056;-71
2022/03/07 09:37:58;;;;;;;42.15;26.38;;;;;;;;;;5040390;28;20036;-70
2022/03/07 09:40:23;;;;;;;34.65;22.85;;;;;;;;;;5039580;28;20029;-71
2022/03/07 09:42:50;;;;;;;31.25;22.75;;;;;;;;;;5039859;28;20017;-69
2022/03/07 09:45:15;;;;;;;27.42;21.10;;;;;;;;;;5037326;28;20033;-69
2022/03/07 09:47:41;;;;;;;26.55;19.90;;;;;;;;;;5039595;28;20041;-71
2022/03/07 09:50:09;;;;;;;49.22;33.10;;;;;;;;;;5038955;28;20040;-70
2022/03/07 09:52:35;;;;;;;21.95;15.85;;;;;;;;;;5037914;28;20033;-71
2022/03/07 09:55:00;;;;;;;31.63;22.75;;;;;;;;;;5038184;28;20024;-70
2022/03/07 09:57:26;;;;;;;27.52;20.38;;;;;;;;;;5040524;28;20033;-71
2022/03/07 09:59:51;;;;;;;22.98;16.65;;;;;;;;;;5039513;28;20146;-73
2022/03/07 10:02:22;;;;;;;27.90;18.15;;;;;;;;;;5039575;28;20039;-70
2022/03/07 10:04:48;;;;;;;19.42;15.13;;;;;;;;;;5036691;28;20037;-70
2022/03/07 10:07:13;;;;;;;40.53;24.50;;;;;;;;;;5038473;28;20086;-70
2022/03/07 10:09:39;;;;;;;47.25;28.00;;;;;;;;;;5039971;28;20035;-69
2022/03/07 10:12:05;;;;;;;114.55;60.10;;;;;;;;;;5036791;28;20029;-71
2022/03/07 10:14:34;;;;;;;80.50;43.65;;;;;;;;;;5039065;28;20130;-69
2022/03/07 10:16:59;;;;;;;41.83;26.15;;;;;;;;;;5037824;28;20036;-69
2022/03/07 10:19:25;;;;;;;59.38;39.97;;;;;;;;;;5039896;28;20044;-70
2022/03/07 10:21:52;;;;;;;32.88;24.30;;;;;;;;;;5037663;28;20032;-69
2022/03/07 10:24:17;;;;;;;21.83;15.88;;;;;;;;;;5036336;28;20033;-69
2022/03/07 10:26:43;;;;;;;20.40;15.07;;;;;;;;;;5038103;28;20024;-71
2022/03/07 10:29:09;;;;;;;35.13;25.50;;;;;;;;;;5038101;28;20040;-69
2022/03/07 10:31:34;;;;;;;36.50;24.95;;;;;;;;;;5037844;28;20036;-69
2022/03/07 10:34:10;;;;;;;25.00;17.60;;;;;;;;;;5039467;28;20053;-69
2022/03/07 10:36:42;;;;;;;24.70;16.45;;;;;;;;;;5037305;28;20116;-70
2022/03/07 10:39:11;;;;;;;22.48;16.00;;;;;;;;;;5037994;28;20032;-69
2022/03/07 10:41:36;;;;;;;29.98;22.98;;;;;;;;;;5037963;28;20098;-70
2022/03/07 10:44:03;;;;;;;25.23;17.58;;;;;;;;;;5035434;28;20029;-70
2022/03/07 10:46:28;;;;;;;30.48;22.02;;;;;;;;;;5037169;28;20024;-70
2022/03/07 10:48:54;;;;;;;22.58;16.95;;;;;;;;;;5038646;28;20088;-70
2022/03/07 10:51:20;;;;;;;23.48;16.23;;;;;;;;;;5028555;28;20035;-69
2022/03/07 10:53:46;;;;;;;20.80;14.55;;;;;;;;;;5039483;28;20013;-70
2022/03/07 10:56:16;;;;;;;20.45;15.25;;;;;;;;;;5039578;28;20491;-70
2022/03/07 10:58:52;;;;;;;19.77;15.35;;;;;;;;;;5039900;28;20120;-73
2022/03/07 11:01:30;;;;;;;25.50;18.55;;;;;;;;;;5039677;28;20028;-73
2022/03/07 11:03:56;;;;;;;17.83;13.90;;;;;;;;;;5039218;28;20020;-73
2022/03/07 11:06:21;;;;;;;19.48;14.00;;;;;;;;;;5039715;28;20025;-73
2022/03/07 11:08:47;;;;;;;25.52;18.23;;;;;;;;;;5023124;28;20025;-70
2022/03/07 11:11:15;;;;;;;29.55;20.50;;;;;;;;;;5038445;28;20055;-71
2022/03/07 11:13:41;;;;;;;25.65;18.98;;;;;;;;;;5039806;28;20060;-71
2022/03/07 11:16:06;;;;;;;23.20;19.30;;;;;;;;;;5039772;28;20029;-71
2022/03/07 11:18:32;;;;;;;19.65;15.50;;;;;;;;;;5039982;28;20117;-71
2022/03/07 11:20:59;;;;;;;37.42;25.73;;;;;;;;;;5039806;28;20294;-70
2022/03/07 11:23:24;;;;;;;21.33;15.60;;;;;;;;;;5039187;28;20025;-71
2022/03/07 11:25:51;;;;;;;33.75;24.50;;;;;;;;;;5040511;28;20039;-71
2022/03/07 11:28:17;;;;;;;23.67;17.77;;;;;;;;;;5038060;28;20048;-70
2022/03/07 11:30:43;;;;;;;25.83;18.80;;;;;;;;;;5041697;28;20384;-71
2022/03/07 11:33:10;;;;;;;29.27;23.63;;;;;;;;;;5038916;28;20375;-70
2022/03/07 11:35:36;;;;;;;31.85;21.60;;;;;;;;;;5038196;28;20028;-70
2022/03/07 11:38:12;;;;;;;25.60;18.88;;;;;;;;;;5037438;28;20017;-71
2022/03/07 11:40:57;;;;;;;23.25;15.50;;;;;;;;;;5038829;28;20510;-71
2022/03/07 11:43:24;;;;;;;21.58;15.13;;;;;;;;;;5037830;28;20040;-71
2022/03/07 11:45:50;;;;;;;28.95;21.27;;;;;;;;;;5038939;28;20109;-71
2022/03/07 11:48:15;;;;;;;32.15;23.10;;;;;;;;;;5038123;28;20100;-72
2022/03/07 11:50:40;;;;;;;25.85;19.80;;;;;;;;;;5020486;28;20021;-71
2022/03/07 11:53:06;;;;;;;29.08;20.30;;;;;;;;;;5038745;28;20064;-72
2022/03/07 11:55:32;;;;;;;27.17;20.77;;;;;;;;;;5023191;28;20435;-72
2022/03/07 11:57:59;;;;;;;18.75;13.88;;;;;;;;;;5039389;28;20573;-72
2022/03/07 12:00:27;;;;;;;19.75;14.68;;;;;;;;;;5039210;28;20336;-72
2022/03/07 12:02:53;;;;;;;22.95;17.42;;;;;;;;;;5039940;28;20017;-72
2022/03/07 12:05:29;;;;;;;25.05;17.45;;;;;;;;;;5041143;28;20025;-73
2022/03/07 12:08:11;;;;;;;27.70;18.88;;;;;;;;;;5043158;28;20029;-71
2022/03/07 12:10:38;;;;;;;30.48;20.25;;;;;;;;;;5041108;28;20284;-73
2022/03/07 12:13:08;;;;;;;30.15;21.52;;;;;;;;;;5041952;28;20048;-72
2022/03/07 12:15:46;;;;;;;28.92;20.10;;;;;;;;;;5042198;28;20009;-72
2022/03/07 12:18:12;;;;;;;30.85;22.02;;;;;;;;;;5042392;28;20064;-73
2022/03/07 12:20:49;;;;;;;97.38;56.30;;;;;;;;;;5041790;28;20424;-73
2022/03/07 12:23:17;;;;;;;37.45;25.55;;;;;;;;;;5042505;28;20033;-72
2022/03/07 12:25:42;;;;;;;39.10;27.63;;;;;;;;;;5043065;28;20025;-72
2022/03/07 12:28:08;;;;;;;41.08;26.42;;;;;;;;;;5043291;28;20131;-73
2022/03/07 12:30:33;;;;;;;59.03;36.90;;;;;;;;;;5041113;28;20070;-73
2022/03/07 12:33:04;;;;;;;33.08;23.05;;;;;;;;;;5042897;28;20084;-72
2022/03/07 12:35:29;;;;;;;17.45;13.70;;;;;;;;;;5041336;28;20128;-72
2022/03/07 12:37:56;;;;;;;14.55;11.35;;;;;;;;;;5042532;28;20132;-72
2022/03/07 12:40:21;;;;;;;16.77;13.65;;;;;;;;;;5042452;28;20053;-72
2022/03/07 12:42:47;;;;;;;20.63;16.65;;;;;;;;;;5041846;28;20067;-73
2022/03/07 12:45:16;;;;;;;21.52;16.15;;;;;;;;;;5041863;28;20017;-72
2022/03/07 12:47:43;;;;;;;19.35;14.70;;;;;;;;;;5041230;28;20452;-73
2022/03/07 12:50:12;;;;;;;25.40;18.35;;;;;;;;;;5042194;28;20013;-73
2022/03/07 12:52:38;;;;;;;30.23;22.55;;;;;;;;;;5042099;28;20013;-71
2022/03/07 12:55:09;;;;;;;27.13;19.67;;;;;;;;;;5040910;28;20070;-71
2022/03/07 12:57:34;;;;;;;28.70;19.60;;;;;;;;;;5042173;28;20020;-71
2022/03/07 13:00:02;;;;;;;28.20;18.90;;;;;;;;;;5043577;28;20079;-72
2022/03/07 13:02:34;;;;;;;56.70;31.05;;;;;;;;;;5040103;28;20025;-73
2022/03/07 13:05:00;;;;;;;242.40;107.78;;;;;;;;;;5038874;28;20021;-70
2022/03/07 13:07:25;;;;;;;186.23;92.55;;;;;;;;;;5041338;28;20383;-69
2022/03/07 13:09:51;;;;;;;39.13;24.52;;;;;;;;;;5042564;28;20033;-73
2022/03/07 13:12:16;;;;;;;25.13;18.70;;;;;;;;;;5041083;28;20152;-72
2022/03/07 13:14:42;;;;;;;24.52;18.02;;;;;;;;;;5039903;28;20108;-72
2022/03/07 13:17:10;;;;;;;53.10;40.55;;;;;;;;;;5042881;28;20029;-70
2022/03/07 13:19:35;;;;;;;21.20;16.75;;;;;;;;;;5040635;28;20036;-70
2022/03/07 13:22:01;;;;;;;20.00;16.33;;;;;;;;;;5040217;28;20568;-71
2022/03/07 13:24:26;;;;;;;37.47;28.27;;;;;;;;;;5041590;28;20049;-72
2022/03/07 13:26:58;;;;;;;22.55;16.00;;;;;;;;;;5040380;28;20951;-72
2022/03/07 13:29:26;;;;;;;11.25;8.40;;;;;;;;;;5041674;28;20024;-73
2022/03/07 13:31:53;;;;;;;14.90;10.45;;;;;;;;;;5040442;28;20094;-71
2022/03/07 13:34:19;;;;;;;13.07;9.65;;;;;;;;;;5041518;28;20017;-75
2022/03/07 13:37:05;;;;;;;18.52;12.52;;;;;;;;;;5030786;28;20087;-73
2022/03/07 13:39:31;;;;;;;20.48;12.18;;;;;;;;;;5026636;28;20045;-73
2022/03/07 13:41:57;;;;;;;17.02;12.73;;;;;;;;;;5026103;28;20028;-73
2022/03/07 13:44:23;;;;;;;15.00;10.80;;;;;;;;;;5024901;28;20074;-73
2022/03/07 13:46:55;;;;;;;19.20;15.00;;;;;;;;;;5027942;28;20024;-74
2022/03/07 13:49:23;;;;;;;24.27;16.85;;;;;;;;;;5026211;28;20451;-73
2022/03/07 13:51:49;;;;;;;39.63;23.10;;;;;;;;;;5026521;28;20103;-72
2022/03/07 13:54:14;;;;;;;15.02;11.10;;;;;;;;;;5027202;28;20162;-72
2022/03/07 13:56:40;;;;;;;16.15;11.95;;;;;;;;;;5036767;28;20432;-70
2022/03/07 13:59:13;;;;;;;13.75;11.40;;;;;;;;;;5038037;28;20325;-73
2022/03/07 14:01:38;;;;;;;20.33;15.45;;;;;;;;;;5037141;28;20124;-72
2022/03/07 14:04:13;;;;;;;18.63;12.43;;;;;;;;;;5033280;28;20159;-72
2022/03/07 14:06:39;;;;;;;16.55;14.43;;;;;;;;;;5027280;28;20372;-73
2022/03/07 14:09:11;;;;;;;15.80;11.98;;;;;;;;;;5026847;28;20040;-72
2022/03/07 14:11:37;;;;;;;14.07;10.80;;;;;;;;;;5031637;28;20021;-71
2022/03/07 14:14:02;;;;;;;44.70;32.47;;;;;;;;;;5034071;28;20061;-70
2022/03/07 14:16:38;;;;;;;32.83;25.38;;;;;;;;;;5034866;28;20651;-73